sensor_id;sensor_type;location;lat;lon;timestamp;temperature;humidity
15357;DHT22;7778;48.792;9.260;2024-02-23T00:00:46;6.80;99.90
15357;DHT22;7778;48.792;9.260;2024-02-23T00:03:32;6.70;99.90
15357;DHT22;7778;48.792;9.260;2024-02-23T00:06:20;6.90;99.90
15357;DHT22;7778;48.792;9.260;2024-02-23T00:09:07;6.70;99.90
15357;DHT22;7778;48.792;9.260;2024-02-23T00:11:52;6.60;99.90
15357;DHT22;7778;48.792;9.260;2024-02-23T00:14:38;6.50;99.90
15357;DHT22;7778;48.792;9.260;2024-02-23T00:17:23;6.50;99.90
15357;DHT22;7778;48.792;9.260;2024-02-23T00:20:10;6.60;99.90
15357;DHT22;7778;48.792;9.260;2024-02-23T00:22:57;6.60;99.90
15357;DHT22;7778;48.792;9.260;2024-02-23T00:25:42;6.60;99.90
15357;DHT22;7778;48.792;9.260;2024-02-23T00:28:28;6.60;99.90
15357;DHT22;7778;48.792;9.260;2024-02-23T00:31:14;6.60;99.90
15357;DHT22;7778;48.792;9.260;2024-02-23T00:33:59;6.70;99.90
15357;DHT22;7778;48.792;9.260;2024-02-23T00:36:45;6.60;99.90
15357;DHT22;7778;48.792;9.260;2024-02-23T00:39:32;6.70;99.90
15357;DHT22;7778;48.792;9.260;2024-02-23T00:42:17;6.50;99.90
15357;DHT22;7778;48.792;9.260;2024-02-23T00:45:05;6.50;99.90
15357;DHT22;7778;48.792;9.260;2024-02-23T00:47:52;6.70;99.90
15357;DHT22;7778;48.792;9.260;2024-02-23T00:50:37;6.70;99.90
15357;DHT22;7778;48.792;9.260;2024-02-23T00:53:22;6.80;99.90
15357;DHT22;7778;48.792;9.260;2024-02-23T00:56:09;6.60;99.90
15357;DHT22;7778;48.792;9.260;2024-02-23T00:58:55;6.70;99.90
15357;DHT22;7778;48.792;9.260;2024-02-23T01:01:40;6.80;99.90
15357;DHT22;7778;48.792;9.260;2024-02-23T01:04:26;6.70;99.90
15357;DHT22;7778;48.792;9.260;2024-02-23T01:07:11;6.80;99.90
15357;DHT22;7778;48.792;9.260;2024-02-23T01:09:57;6.90;99.90
15357;DHT22;7778;48.792;9.260;2024-02-23T01:12:44;6.90;99.90
15357;DHT22;7778;48.792;9.260;2024-02-23T01:15:30;6.80;99.90
15357;DHT22;7778;48.792;9.260;2024-02-23T01:18:15;6.70;99.90
15357;DHT22;7778;48.792;9.260;2024-02-23T01:21:01;6.80;99.90
15357;DHT22;7778;48.792;9.260;2024-02-23T01:23:46;6.80;99.90
15357;DHT22;7778;48.792;9.260;2024-02-23T01:26:32;6.80;99.90
15357;DHT22;7778;48.792;9.260;2024-02-23T01:29:19;6.70;99.90
15357;DHT22;7778;48.792;9.260;2024-02-23T01:32:05;6.70;99.90
15357;DHT22;7778;48.792;9.260;2024-02-23T01:34:51;6.80;99.90
15357;DHT22;7778;48.792;9.260;2024-02-23T01:37:37;6.80;99.90
15357;DHT22;7778;48.792;9.260;2024-02-23T01:40:22;6.70;99.90
15357;DHT22;7778;48.792;9.260;2024-02-23T01:43:08;6.70;99.90
15357;DHT22;7778;48.792;9.260;2024-02-23T01:45:55;6.60;99.90
15357;DHT22;7778;48.792;9.260;2024-02-23T01:48:40;6.50;99.90
15357;DHT22;7778;48.792;9.260;2024-02-23T01:51:26;6.50;99.90
15357;DHT22;7778;48.792;9.260;2024-02-23T01:54:11;6.60;99.90
15357;DHT22;7778;48.792;9.260;2024-02-23T01:56:58;6.60;99.90
15357;DHT22;7778;48.792;9.260;2024-02-23T01:59:44;6.70;99.90
15357;DHT22;7778;48.792;9.260;2024-02-23T02:02:31;6.70;99.90
15357;DHT22;7778;48.792;9.260;2024-02-23T02:05:17;6.70;99.90
15357;DHT22;7778;48.792;9.260;2024-02-23T02:08:03;6.60;99.90
15357;DHT22;7778;48.792;9.260;2024-02-23T02:10:50;6.70;99.90
15357;DHT22;7778;48.792;9.260;2024-02-23T02:13:35;6.60;99.90
15357;DHT22;7778;48.792;9.260;2024-02-23T02:16:21;6.70;99.90
15357;DHT22;7778;48.792;9.260;2024-02-23T02:19:08;6.70;99.90
15357;DHT22;7778;48.792;9.260;2024-02-23T02:21:53;6.70;99.90
15357;DHT22;7778;48.792;9.260;2024-02-23T02:24:39;6.80;99.90
15357;DHT22;7778;48.792;9.260;2024-02-23T02:27:28;6.80;99.90
15357;DHT22;7778;48.792;9.260;2024-02-23T02:30:14;6.70;99.90
15357;DHT22;7778;48.792;9.260;2024-02-23T02:32:59;6.70;99.90
15357;DHT22;7778;48.792;9.260;2024-02-23T02:35:46;6.70;99.90
15357;DHT22;7778;48.792;9.260;2024-02-23T02:38:32;6.70;99.90
15357;DHT22;7778;48.792;9.260;2024-02-23T02:41:19;6.70;99.90
15357;DHT22;7778;48.792;9.260;2024-02-23T02:44:05;6.50;99.90
15357;DHT22;7778;48.792;9.260;2024-02-23T02:46:51;6.40;99.90
15357;DHT22;7778;48.792;9.260;2024-02-23T02:49:39;6.30;99.90
15357;DHT22;7778;48.792;9.260;2024-02-23T02:52:26;6.20;99.90
15357;DHT22;7778;48.792;9.260;2024-02-23T02:55:12;6.10;99.90
15357;DHT22;7778;48.792;9.260;2024-02-23T02:57:58;6.10;99.90
15357;DHT22;7778;48.792;9.260;2024-02-23T03:00:44;6.20;99.90
15357;DHT22;7778;48.792;9.260;2024-02-23T03:03:29;6.10;99.90
15357;DHT22;7778;48.792;9.260;2024-02-23T03:06:15;5.90;99.90
15357;DHT22;7778;48.792;9.260;2024-02-23T03:09:02;5.80;99.90
15357;DHT22;7778;48.792;9.260;2024-02-23T03:11:49;5.80;99.90
15357;DHT22;7778;48.792;9.260;2024-02-23T03:14:34;5.90;99.90
15357;DHT22;7778;48.792;9.260;2024-02-23T03:17:21;5.60;99.90
15357;DHT22;7778;48.792;9.260;2024-02-23T03:20:07;5.60;99.90
15357;DHT22;7778;48.792;9.260;2024-02-23T03:22:55;5.70;99.90
15357;DHT22;7778;48.792;9.260;2024-02-23T03:25:42;5.80;99.90
15357;DHT22;7778;48.792;9.260;2024-02-23T03:28:28;5.90;99.90
15357;DHT22;7778;48.792;9.260;2024-02-23T03:31:13;5.90;99.90
15357;DHT22;7778;48.792;9.260;2024-02-23T03:33:59;6.00;99.90
15357;DHT22;7778;48.792;9.260;2024-02-23T03:36:44;6.00;99.90
15357;DHT22;7778;48.792;9.260;2024-02-23T03:39:30;5.90;99.90
15357;DHT22;7778;48.792;9.260;2024-02-23T03:42:18;6.00;99.90
15357;DHT22;7778;48.792;9.260;2024-02-23T03:45:04;6.00;99.90
15357;DHT22;7778;48.792;9.260;2024-02-23T03:47:50;6.00;99.90
15357;DHT22;7778;48.792;9.260;2024-02-23T03:50:36;6.00;99.90
15357;DHT22;7778;48.792;9.260;2024-02-23T03:53:21;6.00;99.90
15357;DHT22;7778;48.792;9.260;2024-02-23T03:56:07;5.90;99.90
15357;DHT22;7778;48.792;9.260;2024-02-23T03:58:54;5.90;99.90
15357;DHT22;7778;48.792;9.260;2024-02-23T04:01:40;5.90;99.90
15357;DHT22;7778;48.792;9.260;2024-02-23T04:04:26;5.90;99.90
15357;DHT22;7778;48.792;9.260;2024-02-23T04:07:11;5.90;99.90
15357;DHT22;7778;48.792;9.260;2024-02-23T04:09:57;5.80;99.90
15357;DHT22;7778;48.792;9.260;2024-02-23T04:12:43;5.80;99.90
15357;DHT22;7778;48.792;9.260;2024-02-23T04:15:30;5.90;99.90
15357;DHT22;7778;48.792;9.260;2024-02-23T04:18:15;5.80;99.90
15357;DHT22;7778;48.792;9.260;2024-02-23T04:21:01;5.80;99.90
15357;DHT22;7778;48.792;9.260;2024-02-23T04:23:47;5.80;99.90
15357;DHT22;7778;48.792;9.260;2024-02-23T04:26:32;5.80;99.90
15357;DHT22;7778;48.792;9.260;2024-02-23T04:29:18;5.80;99.90
15357;DHT22;7778;48.792;9.260;2024-02-23T04:32:05;5.90;99.90
15357;DHT22;7778;48.792;9.260;2024-02-23T04:34:51;5.90;99.90
15357;DHT22;7778;48.792;9.260;2024-02-23T04:37:37;6.00;99.90
15357;DHT22;7778;48.792;9.260;2024-02-23T04:40:23;5.90;99.90
15357;DHT22;7778;48.792;9.260;2024-02-23T04:43:08;5.90;99.90
15357;DHT22;7778;48.792;9.260;2024-02-23T04:45:54;6.00;99.90
15357;DHT22;7778;48.792;9.260;2024-02-23T04:48:41;5.80;99.90
15357;DHT22;7778;48.792;9.260;2024-02-23T04:51:27;5.70;99.90
15357;DHT22;7778;48.792;9.260;2024-02-23T04:54:13;5.60;99.90
15357;DHT22;7778;48.792;9.260;2024-02-23T04:56:58;5.80;99.90
15357;DHT22;7778;48.792;9.260;2024-02-23T04:59:44;5.70;99.90
15357;DHT22;7778;48.792;9.260;2024-02-23T05:02:29;5.70;99.90
15357;DHT22;7778;48.792;9.260;2024-02-23T05:05:20;5.70;99.90
15357;DHT22;7778;48.792;9.260;2024-02-23T05:08:06;5.70;99.90
15357;DHT22;7778;48.792;9.260;2024-02-23T05:10:51;5.60;99.90
15357;DHT22;7778;48.792;9.260;2024-02-23T05:13:37;5.60;99.90
15357;DHT22;7778;48.792;9.260;2024-02-23T05:16:26;5.60;99.90
15357;DHT22;7778;48.792;9.260;2024-02-23T05:19:11;5.80;99.90
15357;DHT22;7778;48.792;9.260;2024-02-23T05:21:58;5.90;99.90
15357;DHT22;7778;48.792;9.260;2024-02-23T05:24:43;5.80;99.90
15357;DHT22;7778;48.792;9.260;2024-02-23T05:27:29;5.70;99.90
15357;DHT22;7778;48.792;9.260;2024-02-23T05:30:15;5.70;99.90
15357;DHT22;7778;48.792;9.260;2024-02-23T05:33:01;5.80;99.90
15357;DHT22;7778;48.792;9.260;2024-02-23T05:35:47;5.80;99.90
15357;DHT22;7778;48.792;9.260;2024-02-23T05:38:35;5.80;99.90
15357;DHT22;7778;48.792;9.260;2024-02-23T05:41:20;6.00;99.90
15357;DHT22;7778;48.792;9.260;2024-02-23T05:44:06;5.80;99.90
15357;DHT22;7778;48.792;9.260;2024-02-23T05:46:51;5.90;99.90
15357;DHT22;7778;48.792;9.260;2024-02-23T05:49:37;5.60;99.90
15357;DHT22;7778;48.792;9.260;2024-02-23T05:52:22;5.60;99.90
15357;DHT22;7778;48.792;9.260;2024-02-23T05:55:10;5.60;99.90
15357;DHT22;7778;48.792;9.260;2024-02-23T05:57:56;5.50;99.90
15357;DHT22;7778;48.792;9.260;2024-02-23T06:00:42;5.70;99.90
15357;DHT22;7778;48.792;9.260;2024-02-23T06:03:27;5.80;99.90
15357;DHT22;7778;48.792;9.260;2024-02-23T06:06:13;5.70;99.90
15357;DHT22;7778;48.792;9.260;2024-02-23T06:08:58;5.50;99.90
15357;DHT22;7778;48.792;9.260;2024-02-23T06:11:46;5.30;99.90
15357;DHT22;7778;48.792;9.260;2024-02-23T06:14:31;5.30;99.90
15357;DHT22;7778;48.792;9.260;2024-02-23T06:17:17;5.40;99.90
15357;DHT22;7778;48.792;9.260;2024-02-23T06:20:03;5.40;99.90
15357;DHT22;7778;48.792;9.260;2024-02-23T06:22:51;5.40;99.90
15357;DHT22;7778;48.792;9.260;2024-02-23T06:25:37;5.50;99.90
15357;DHT22;7778;48.792;9.260;2024-02-23T06:28:24;5.60;99.90
15357;DHT22;7778;48.792;9.260;2024-02-23T06:31:10;5.50;99.90
15357;DHT22;7778;48.792;9.260;2024-02-23T06:33:55;5.40;99.90
15357;DHT22;7778;48.792;9.260;2024-02-23T06:36:41;5.50;99.90
15357;DHT22;7778;48.792;9.260;2024-02-23T06:39:26;5.40;99.90
15357;DHT22;7778;48.792;9.260;2024-02-23T06:42:12;5.20;99.90
15357;DHT22;7778;48.792;9.260;2024-02-23T06:44:59;5.30;99.90
15357;DHT22;7778;48.792;9.260;2024-02-23T06:47:45;5.20;99.90
15357;DHT22;7778;48.792;9.260;2024-02-23T06:50:30;5.20;99.90
15357;DHT22;7778;48.792;9.260;2024-02-23T06:53:16;5.30;99.90
15357;DHT22;7778;48.792;9.260;2024-02-23T06:56:01;5.20;99.90
15357;DHT22;7778;48.792;9.260;2024-02-23T06:58:47;5.20;99.90
15357;DHT22;7778;48.792;9.260;2024-02-23T07:01:33;5.20;99.90
15357;DHT22;7778;48.792;9.260;2024-02-23T07:04:21;5.30;99.90
15357;DHT22;7778;48.792;9.260;2024-02-23T07:07:07;5.40;99.90
15357;DHT22;7778;48.792;9.260;2024-02-23T07:09:52;5.50;99.90
15357;DHT22;7778;48.792;9.260;2024-02-23T07:12:39;5.30;99.90
15357;DHT22;7778;48.792;9.260;2024-02-23T07:15:25;5.60;99.90
15357;DHT22;7778;48.792;9.260;2024-02-23T07:18:12;5.70;99.90
15357;DHT22;7778;48.792;9.260;2024-02-23T07:20:58;5.70;99.90
15357;DHT22;7778;48.792;9.260;2024-02-23T07:23:46;5.70;99.90
15357;DHT22;7778;48.792;9.260;2024-02-23T07:26:31;5.70;99.90
15357;DHT22;7778;48.792;9.260;2024-02-23T07:29:17;5.70;99.90
15357;DHT22;7778;48.792;9.260;2024-02-23T07:32:04;5.70;99.90
15357;DHT22;7778;48.792;9.260;2024-02-23T07:34:52;5.70;99.90
15357;DHT22;7778;48.792;9.260;2024-02-23T07:37:37;5.80;99.90
15357;DHT22;7778;48.792;9.260;2024-02-23T07:40:23;5.80;99.90
15357;DHT22;7778;48.792;9.260;2024-02-23T07:43:08;5.90;99.90
15357;DHT22;7778;48.792;9.260;2024-02-23T07:45:55;6.00;99.90
15357;DHT22;7778;48.792;9.260;2024-02-23T07:48:41;6.00;99.90
15357;DHT22;7778;48.792;9.260;2024-02-23T07:51:28;6.10;99.90
15357;DHT22;7778;48.792;9.260;2024-02-23T07:54:13;6.20;99.90
15357;DHT22;7778;48.792;9.260;2024-02-23T07:56:59;6.10;99.90
15357;DHT22;7778;48.792;9.260;2024-02-23T07:59:45;6.10;99.90
15357;DHT22;7778;48.792;9.260;2024-02-23T08:02:30;6.00;99.90
15357;DHT22;7778;48.792;9.260;2024-02-23T08:05:16;6.20;99.90
15357;DHT22;7778;48.792;9.260;2024-02-23T08:08:03;6.10;99.90
15357;DHT22;7778;48.792;9.260;2024-02-23T08:10:50;6.10;99.90
15357;DHT22;7778;48.792;9.260;2024-02-23T08:13:36;6.20;99.90
15357;DHT22;7778;48.792;9.260;2024-02-23T08:16:21;6.30;99.90
15357;DHT22;7778;48.792;9.260;2024-02-23T08:19:07;6.40;99.90
15357;DHT22;7778;48.792;9.260;2024-02-23T08:21:53;6.30;99.90
15357;DHT22;7778;48.792;9.260;2024-02-23T08:24:40;6.40;99.90
15357;DHT22;7778;48.792;9.260;2024-02-23T08:27:25;6.40;99.90
15357;DHT22;7778;48.792;9.260;2024-02-23T08:30:13;6.40;99.90
15357;DHT22;7778;48.792;9.260;2024-02-23T08:33:00;6.50;99.90
15357;DHT22;7778;48.792;9.260;2024-02-23T08:35:46;6.60;99.90
15357;DHT22;7778;48.792;9.260;2024-02-23T08:38:32;6.50;99.90
15357;DHT22;7778;48.792;9.260;2024-02-23T08:41:19;6.60;99.90
15357;DHT22;7778;48.792;9.260;2024-02-23T08:44:05;6.60;99.90
15357;DHT22;7778;48.792;9.260;2024-02-23T08:46:50;6.60;99.90
15357;DHT22;7778;48.792;9.260;2024-02-23T08:49:36;6.50;99.90
15357;DHT22;7778;48.792;9.260;2024-02-23T08:52:22;6.40;99.90
15357;DHT22;7778;48.792;9.260;2024-02-23T08:55:08;6.40;99.90
15357;DHT22;7778;48.792;9.260;2024-02-23T08:57:55;6.40;99.90
15357;DHT22;7778;48.792;9.260;2024-02-23T09:00:41;6.30;99.90
15357;DHT22;7778;48.792;9.260;2024-02-23T09:03:27;6.40;99.90
15357;DHT22;7778;48.792;9.260;2024-02-23T09:06:13;6.50;99.90
15357;DHT22;7778;48.792;9.260;2024-02-23T09:08:58;6.40;99.90
15357;DHT22;7778;48.792;9.260;2024-02-23T09:11:44;6.50;99.90
15357;DHT22;7778;48.792;9.260;2024-02-23T09:14:31;6.50;99.90
15357;DHT22;7778;48.792;9.260;2024-02-23T09:17:17;6.70;99.90
15357;DHT22;7778;48.792;9.260;2024-02-23T09:20:05;7.00;99.90
15357;DHT22;7778;48.792;9.260;2024-02-23T09:22:51;7.20;99.90
15357;DHT22;7778;48.792;9.260;2024-02-23T09:25:37;7.30;99.90
15357;DHT22;7778;48.792;9.260;2024-02-23T09:28:23;7.30;99.90
15357;DHT22;7778;48.792;9.260;2024-02-23T09:31:10;7.40;99.90
15357;DHT22;7778;48.792;9.260;2024-02-23T09:33:55;7.30;99.90
15357;DHT22;7778;48.792;9.260;2024-02-23T09:36:41;7.20;99.90
15357;DHT22;7778;48.792;9.260;2024-02-23T09:39:27;7.20;99.90
15357;DHT22;7778;48.792;9.260;2024-02-23T09:42:14;7.20;99.90
15357;DHT22;7778;48.792;9.260;2024-02-23T09:45:02;7.50;99.90
15357;DHT22;7778;48.792;9.260;2024-02-23T09:47:50;7.40;99.90
15357;DHT22;7778;48.792;9.260;2024-02-23T09:50:37;7.60;99.90
15357;DHT22;7778;48.792;9.260;2024-02-23T09:53:23;8.00;99.90
15357;DHT22;7778;48.792;9.260;2024-02-23T09:56:08;8.10;99.90
15357;DHT22;7778;48.792;9.260;2024-02-23T09:58:56;8.30;99.90
15357;DHT22;7778;48.792;9.260;2024-02-23T10:01:45;8.40;99.90
15357;DHT22;7778;48.792;9.260;2024-02-23T10:04:32;8.80;99.90
15357;DHT22;7778;48.792;9.260;2024-02-23T10:07:18;9.00;99.90
15357;DHT22;7778;48.792;9.260;2024-02-23T10:10:06;9.00;99.90
15357;DHT22;7778;48.792;9.260;2024-02-23T10:12:53;9.00;99.90
15357;DHT22;7778;48.792;9.260;2024-02-23T10:15:38;8.90;99.90
15357;DHT22;7778;48.792;9.260;2024-02-23T10:18:24;8.40;99.90
15357;DHT22;7778;48.792;9.260;2024-02-23T10:21:11;8.10;99.90
15357;DHT22;7778;48.792;9.260;2024-02-23T10:23:57;7.80;99.90
15357;DHT22;7778;48.792;9.260;2024-02-23T10:26:44;7.80;99.90
15357;DHT22;7778;48.792;9.260;2024-02-23T10:29:30;7.90;99.90
15357;DHT22;7778;48.792;9.260;2024-02-23T10:32:18;8.10;99.90
15357;DHT22;7778;48.792;9.260;2024-02-23T10:35:08;7.90;99.90
15357;DHT22;7778;48.792;9.260;2024-02-23T10:37:56;7.80;99.90
15357;DHT22;7778;48.792;9.260;2024-02-23T10:40:43;7.80;99.90
15357;DHT22;7778;48.792;9.260;2024-02-23T10:43:35;7.70;99.90
15357;DHT22;7778;48.792;9.260;2024-02-23T10:46:24;7.80;99.90
15357;DHT22;7778;48.792;9.260;2024-02-23T10:49:11;7.90;99.90
15357;DHT22;7778;48.792;9.260;2024-02-23T10:51:58;7.80;99.90
15357;DHT22;7778;48.792;9.260;2024-02-23T10:54:46;8.10;99.90
15357;DHT22;7778;48.792;9.260;2024-02-23T10:57:34;8.20;99.90
15357;DHT22;7778;48.792;9.260;2024-02-23T11:00:21;8.40;99.90
15357;DHT22;7778;48.792;9.260;2024-02-23T11:03:08;8.60;99.90
15357;DHT22;7778;48.792;9.260;2024-02-23T11:05:54;8.50;99.90
15357;DHT22;7778;48.792;9.260;2024-02-23T11:08:40;8.70;99.90
15357;DHT22;7778;48.792;9.260;2024-02-23T11:11:26;8.50;99.90
15357;DHT22;7778;48.792;9.260;2024-02-23T11:14:12;8.70;99.90
15357;DHT22;7778;48.792;9.260;2024-02-23T11:16:58;8.80;99.90
15357;DHT22;7778;48.792;9.260;2024-02-23T11:19:46;8.80;99.90
15357;DHT22;7778;48.792;9.260;2024-02-23T11:22:34;8.80;99.90
15357;DHT22;7778;48.792;9.260;2024-02-23T11:25:26;8.80;99.90
15357;DHT22;7778;48.792;9.260;2024-02-23T11:28:24;8.70;99.90
15357;DHT22;7778;48.792;9.260;2024-02-23T11:31:14;8.60;99.90
15357;DHT22;7778;48.792;9.260;2024-02-23T11:33:59;8.60;99.90
15357;DHT22;7778;48.792;9.260;2024-02-23T11:36:50;8.70;99.90
15357;DHT22;7778;48.792;9.260;2024-02-23T11:39:37;8.60;99.90
15357;DHT22;7778;48.792;9.260;2024-02-23T11:42:24;8.70;99.90
15357;DHT22;7778;48.792;9.260;2024-02-23T11:45:13;8.90;99.90
15357;DHT22;7778;48.792;9.260;2024-02-23T11:48:01;8.90;99.90
15357;DHT22;7778;48.792;9.260;2024-02-23T11:50:48;8.80;99.90
15357;DHT22;7778;48.792;9.260;2024-02-23T11:53:33;8.70;99.90
15357;DHT22;7778;48.792;9.260;2024-02-23T11:56:21;8.60;99.90
15357;DHT22;7778;48.792;9.260;2024-02-23T11:59:08;8.70;99.90
15357;DHT22;7778;48.792;9.260;2024-02-23T12:01:56;8.90;99.90
15357;DHT22;7778;48.792;9.260;2024-02-23T12:04:42;8.90;99.90
15357;DHT22;7778;48.792;9.260;2024-02-23T12:07:28;9.00;99.90
15357;DHT22;7778;48.792;9.260;2024-02-23T12:10:15;9.10;99.90
15357;DHT22;7778;48.792;9.260;2024-02-23T12:13:01;8.80;99.90
15357;DHT22;7778;48.792;9.260;2024-02-23T12:15:47;8.50;99.90
15357;DHT22;7778;48.792;9.260;2024-02-23T12:18:35;8.40;99.90
15357;DHT22;7778;48.792;9.260;2024-02-23T12:21:22;8.80;99.90
15357;DHT22;7778;48.792;9.260;2024-02-23T12:24:08;8.60;99.90
15357;DHT22;7778;48.792;9.260;2024-02-23T12:26:55;8.40;99.90
15357;DHT22;7778;48.792;9.260;2024-02-23T12:29:40;8.40;99.90
15357;DHT22;7778;48.792;9.260;2024-02-23T12:32:26;8.50;99.90
15357;DHT22;7778;48.792;9.260;2024-02-23T12:35:14;8.50;99.90
15357;DHT22;7778;48.792;9.260;2024-02-23T12:38:01;8.90;99.90
15357;DHT22;7778;48.792;9.260;2024-02-23T12:40:46;9.00;99.90
15357;DHT22;7778;48.792;9.260;2024-02-23T12:43:32;9.00;99.90
15357;DHT22;7778;48.792;9.260;2024-02-23T12:46:18;9.10;99.90
15357;DHT22;7778;48.792;9.260;2024-02-23T12:49:03;9.20;99.90
15357;DHT22;7778;48.792;9.260;2024-02-23T12:51:50;9.20;99.90
15357;DHT22;7778;48.792;9.260;2024-02-23T12:54:36;9.20;99.90
15357;DHT22;7778;48.792;9.260;2024-02-23T12:57:22;9.10;99.90
15357;DHT22;7778;48.792;9.260;2024-02-23T13:00:08;9.20;99.90
15357;DHT22;7778;48.792;9.260;2024-02-23T13:02:55;8.80;99.90
15357;DHT22;7778;48.792;9.260;2024-02-23T13:05:40;8.80;99.90
15357;DHT22;7778;48.792;9.260;2024-02-23T13:08:27;8.70;99.90
15357;DHT22;7778;48.792;9.260;2024-02-23T13:11:13;8.70;99.90
15357;DHT22;7778;48.792;9.260;2024-02-23T13:13:59;8.70;99.90
15357;DHT22;7778;48.792;9.260;2024-02-23T13:16:44;8.40;99.90
15357;DHT22;7778;48.792;9.260;2024-02-23T13:19:30;8.70;99.90
15357;DHT22;7778;48.792;9.260;2024-02-23T13:22:16;8.70;99.90
15357;DHT22;7778;48.792;9.260;2024-02-23T13:25:04;8.80;99.90
15357;DHT22;7778;48.792;9.260;2024-02-23T13:27:50;9.00;99.90
15357;DHT22;7778;48.792;9.260;2024-02-23T13:30:36;9.10;99.90
15357;DHT22;7778;48.792;9.260;2024-02-23T13:33:23;9.10;99.90
15357;DHT22;7778;48.792;9.260;2024-02-23T13:36:10;9.10;99.90
15357;DHT22;7778;48.792;9.260;2024-02-23T13:38:56;9.20;99.90
15357;DHT22;7778;48.792;9.260;2024-02-23T13:41:43;9.30;99.90
15357;DHT22;7778;48.792;9.260;2024-02-23T13:44:28;9.00;99.90
15357;DHT22;7778;48.792;9.260;2024-02-23T13:47:14;9.00;99.90
15357;DHT22;7778;48.792;9.260;2024-02-23T13:49:59;9.00;99.90
15357;DHT22;7778;48.792;9.260;2024-02-23T13:52:45;9.00;99.90
15357;DHT22;7778;48.792;9.260;2024-02-23T13:55:31;9.10;99.90
15357;DHT22;7778;48.792;9.260;2024-02-23T13:58:18;9.10;99.90
15357;DHT22;7778;48.792;9.260;2024-02-23T14:01:04;8.80;99.90
15357;DHT22;7778;48.792;9.260;2024-02-23T14:03:49;8.70;99.90
15357;DHT22;7778;48.792;9.260;2024-02-23T14:06:35;8.70;99.90
15357;DHT22;7778;48.792;9.260;2024-02-23T14:09:20;8.80;99.90
15357;DHT22;7778;48.792;9.260;2024-02-23T14:12:06;8.90;99.90
15357;DHT22;7778;48.792;9.260;2024-02-23T14:14:54;9.00;99.90
15357;DHT22;7778;48.792;9.260;2024-02-23T14:17:40;9.00;99.90
15357;DHT22;7778;48.792;9.260;2024-02-23T14:20:25;9.10;99.90
15357;DHT22;7778;48.792;9.260;2024-02-23T14:23:12;9.10;99.90
15357;DHT22;7778;48.792;9.260;2024-02-23T14:25:58;9.00;99.90
15357;DHT22;7778;48.792;9.260;2024-02-23T14:28:44;9.10;99.90
15357;DHT22;7778;48.792;9.260;2024-02-23T14:31:30;9.10;99.90
15357;DHT22;7778;48.792;9.260;2024-02-23T14:34:16;9.10;99.90
15357;DHT22;7778;48.792;9.260;2024-02-23T14:37:02;9.10;99.90
15357;DHT22;7778;48.792;9.260;2024-02-23T14:39:48;8.80;99.90
15357;DHT22;7778;48.792;9.260;2024-02-23T14:42:34;8.70;99.90
15357;DHT22;7778;48.792;9.260;2024-02-23T14:45:20;8.70;99.90
15357;DHT22;7778;48.792;9.260;2024-02-23T14:48:08;8.90;99.90
15357;DHT22;7778;48.792;9.260;2024-02-23T14:50:54;8.80;99.90
15357;DHT22;7778;48.792;9.260;2024-02-23T14:53:42;8.70;99.90
15357;DHT22;7778;48.792;9.260;2024-02-23T14:56:28;8.70;99.90
15357;DHT22;7778;48.792;9.260;2024-02-23T14:59:14;9.10;99.90
15357;DHT22;7778;48.792;9.260;2024-02-23T15:01:59;9.30;99.90
15357;DHT22;7778;48.792;9.260;2024-02-23T15:04:46;9.20;99.90
15357;DHT22;7778;48.792;9.260;2024-02-23T15:07:32;9.30;99.90
15357;DHT22;7778;48.792;9.260;2024-02-23T15:10:18;9.00;99.90
15357;DHT22;7778;48.792;9.260;2024-02-23T15:13:04;9.00;99.90
15357;DHT22;7778;48.792;9.260;2024-02-23T15:15:49;8.90;99.90
15357;DHT22;7778;48.792;9.260;2024-02-23T15:18:35;8.80;99.90
15357;DHT22;7778;48.792;9.260;2024-02-23T15:21:22;8.90;99.90
15357;DHT22;7778;48.792;9.260;2024-02-23T15:24:08;9.30;99.90
15357;DHT22;7778;48.792;9.260;2024-02-23T15:26:54;9.20;99.90
15357;DHT22;7778;48.792;9.260;2024-02-23T15:29:40;9.10;99.90
15357;DHT22;7778;48.792;9.260;2024-02-23T15:32:25;9.00;99.90
15357;DHT22;7778;48.792;9.260;2024-02-23T15:35:11;8.90;99.90
15357;DHT22;7778;48.792;9.260;2024-02-23T15:37:58;9.00;99.90
15357;DHT22;7778;48.792;9.260;2024-02-23T15:40:43;9.00;99.90
15357;DHT22;7778;48.792;9.260;2024-02-23T15:43:29;8.90;99.90
15357;DHT22;7778;48.792;9.260;2024-02-23T15:46:14;8.80;99.90
15357;DHT22;7778;48.792;9.260;2024-02-23T15:49:00;8.70;99.90
15357;DHT22;7778;48.792;9.260;2024-02-23T15:51:45;8.70;99.90
15357;DHT22;7778;48.792;9.260;2024-02-23T15:54:32;8.70;99.90
15357;DHT22;7778;48.792;9.260;2024-02-23T15:57:18;8.70;99.90
15357;DHT22;7778;48.792;9.260;2024-02-23T16:00:06;8.80;99.90
15357;DHT22;7778;48.792;9.260;2024-02-23T16:02:54;8.70;99.90
15357;DHT22;7778;48.792;9.260;2024-02-23T16:05:40;8.90;99.90
15357;DHT22;7778;48.792;9.260;2024-02-23T16:08:39;8.90;99.90
15357;DHT22;7778;48.792;9.260;2024-02-23T16:11:26;8.90;99.90
15357;DHT22;7778;48.792;9.260;2024-02-23T16:14:12;9.00;99.90
15357;DHT22;7778;48.792;9.260;2024-02-23T16:16:58;9.00;99.90
15357;DHT22;7778;48.792;9.260;2024-02-23T16:19:43;9.00;99.90
15357;DHT22;7778;48.792;9.260;2024-02-23T16:22:29;9.10;99.90
15357;DHT22;7778;48.792;9.260;2024-02-23T16:25:15;9.20;99.90
15357;DHT22;7778;48.792;9.260;2024-02-23T16:28:02;9.10;99.90
15357;DHT22;7778;48.792;9.260;2024-02-23T16:30:48;8.80;99.90
15357;DHT22;7778;48.792;9.260;2024-02-23T16:33:34;8.60;99.90
15357;DHT22;7778;48.792;9.260;2024-02-23T16:36:20;8.50;99.90
15357;DHT22;7778;48.792;9.260;2024-02-23T16:39:05;8.30;99.90
15357;DHT22;7778;48.792;9.260;2024-02-23T16:41:52;8.30;99.90
15357;DHT22;7778;48.792;9.260;2024-02-23T16:44:39;8.30;99.90
15357;DHT22;7778;48.792;9.260;2024-02-23T16:47:24;8.20;99.90
15357;DHT22;7778;48.792;9.260;2024-02-23T16:50:10;8.00;99.90
15357;DHT22;7778;48.792;9.260;2024-02-23T16:52:56;7.80;99.90
15357;DHT22;7778;48.792;9.260;2024-02-23T16:55:41;7.80;99.90
15357;DHT22;7778;48.792;9.260;2024-02-23T16:58:27;7.70;99.90
15357;DHT22;7778;48.792;9.260;2024-02-23T17:01:21;7.70;99.90
15357;DHT22;7778;48.792;9.260;2024-02-23T17:04:07;7.70;99.90
15357;DHT22;7778;48.792;9.260;2024-02-23T17:06:52;7.70;99.90
15357;DHT22;7778;48.792;9.260;2024-02-23T17:09:40;7.80;99.90
15357;DHT22;7778;48.792;9.260;2024-02-23T17:12:27;8.00;99.90
15357;DHT22;7778;48.792;9.260;2024-02-23T17:15:13;8.00;99.90
15357;DHT22;7778;48.792;9.260;2024-02-23T17:18:00;7.90;99.90
15357;DHT22;7778;48.792;9.260;2024-02-23T17:20:46;7.90;99.90
15357;DHT22;7778;48.792;9.260;2024-02-23T17:23:32;7.80;99.90
15357;DHT22;7778;48.792;9.260;2024-02-23T17:26:17;8.00;99.90
15357;DHT22;7778;48.792;9.260;2024-02-23T17:29:03;7.90;99.90
15357;DHT22;7778;48.792;9.260;2024-02-23T17:31:48;7.90;99.90
15357;DHT22;7778;48.792;9.260;2024-02-23T17:34:35;7.70;99.90
15357;DHT22;7778;48.792;9.260;2024-02-23T17:37:21;7.60;99.90
15357;DHT22;7778;48.792;9.260;2024-02-23T17:40:10;7.70;99.90
15357;DHT22;7778;48.792;9.260;2024-02-23T17:42:57;7.70;99.90
15357;DHT22;7778;48.792;9.260;2024-02-23T17:45:42;7.70;99.90
15357;DHT22;7778;48.792;9.260;2024-02-23T17:48:28;7.70;99.90
15357;DHT22;7778;48.792;9.260;2024-02-23T17:51:15;7.50;99.90
15357;DHT22;7778;48.792;9.260;2024-02-23T17:54:00;7.50;99.90
15357;DHT22;7778;48.792;9.260;2024-02-23T17:56:46;7.50;99.90
15357;DHT22;7778;48.792;9.260;2024-02-23T17:59:34;7.50;99.90
15357;DHT22;7778;48.792;9.260;2024-02-23T18:02:19;7.50;99.90
15357;DHT22;7778;48.792;9.260;2024-02-23T18:05:05;7.40;99.90